createdAt,value
2017-09-27T00:00:37.956Z,99.10
2017-09-27T00:03:05.464Z,99.30
2017-09-27T00:05:32.971Z,99.40
2017-09-27T00:08:00.476Z,99.40
2017-09-27T00:10:27.963Z,99.50
2017-09-27T00:12:55.467Z,99.30
2017-09-27T00:15:24.908Z,99.20
2017-09-27T00:17:52.421Z,98.90
2017-09-27T00:20:19.915Z,98.80
2017-09-27T00:22:47.511Z,98.70
2017-09-27T00:25:15.003Z,98.80
2017-09-27T00:27:43.271Z,98.90
2017-09-27T00:30:11.524Z,98.70
2017-09-27T00:32:39.008Z,98.70
2017-09-27T00:35:06.516Z,98.60
2017-09-27T00:37:34.810Z,98.80
2017-09-27T00:40:02.321Z,98.80
2017-09-27T00:42:30.572Z,98.60
2017-09-27T00:44:58.835Z,98.70
2017-09-27T00:47:27.093Z,98.70
2017-09-27T00:49:55.372Z,98.90
2017-09-27T00:52:22.864Z,98.80
2017-09-27T00:54:50.372Z,98.70
2017-09-27T00:57:17.889Z,98.70
2017-09-27T00:59:46.173Z,99.00
2017-09-27T01:02:13.670Z,99.00
2017-09-27T01:04:41.183Z,99.00
2017-09-27T01:07:08.680Z,99.50
2017-09-27T01:09:36.952Z,98.80
2017-09-27T01:12:04.464Z,98.70
2017-09-27T01:14:31.987Z,98.80
2017-09-27T01:16:59.480Z,98.80
2017-09-27T01:19:26.988Z,98.70
2017-09-27T01:21:54.480Z,98.80
2017-09-27T01:24:22.000Z,98.80
2017-09-27T01:26:49.498Z,99.30
2017-09-27T01:29:17.007Z,99.00
2017-09-27T01:31:44.492Z,98.90
2017-09-27T01:34:12.017Z,98.80
2017-09-27T01:36:39.504Z,98.90
2017-09-27T01:39:07.764Z,99.00
2017-09-27T01:41:36.041Z,99.00
2017-09-27T01:44:03.540Z,99.00
2017-09-27T01:46:31.043Z,99.00
2017-09-27T01:48:58.547Z,99.20
2017-09-27T01:51:26.824Z,99.30
2017-09-27T01:53:54.312Z,99.30
2017-09-27T01:56:21.820Z,99.40
2017-09-27T01:58:49.304Z,99.30
2017-09-27T02:01:16.817Z,99.40
2017-09-27T02:03:44.305Z,99.30
2017-09-27T02:06:11.812Z,99.20
2017-09-27T02:08:39.309Z,99.20
2017-09-27T02:11:07.587Z,99.20
2017-09-27T02:13:35.068Z,99.20
2017-09-27T02:16:02.576Z,99.30
2017-09-27T02:18:30.068Z,99.50
2017-09-27T02:20:57.608Z,99.60
2017-09-27T02:23:25.141Z,99.60
2017-09-27T02:25:52.648Z,99.50
2017-09-27T02:28:20.136Z,99.60
2017-09-27T02:30:47.635Z,99.40
2017-09-27T02:33:15.128Z,99.20
2017-09-27T02:35:42.640Z,99.20
2017-09-27T02:38:10.129Z,99.30
2017-09-27T02:40:37.659Z,99.20
2017-09-27T02:43:05.145Z,99.50
2017-09-27T02:45:32.640Z,98.90
2017-09-27T02:48:00.136Z,99.10
2017-09-27T02:50:27.615Z,99.20
2017-09-27T02:52:55.120Z,99.20
2017-09-27T02:55:22.613Z,99.40
2017-09-27T02:57:50.120Z,99.50
2017-09-27T03:00:17.615Z,99.50
2017-09-27T03:02:45.893Z,99.60
2017-09-27T03:05:13.380Z,99.60
2017-09-27T03:07:40.884Z,99.70
2017-09-27T03:10:08.372Z,99.50
2017-09-27T03:12:35.882Z,99.10
2017-09-27T03:15:03.371Z,99.40
2017-09-27T03:17:30.884Z,99.60
2017-09-27T03:19:58.374Z,99.60
2017-09-27T03:22:26.643Z,99.70
2017-09-27T03:24:54.904Z,99.70
2017-09-27T03:27:23.175Z,99.70
2017-09-27T03:29:50.676Z,99.60
2017-09-27T03:35:11.152Z,99.90
2017-09-27T03:37:38.660Z,99.90
2017-09-27T03:40:06.152Z,99.90
2017-09-27T03:42:33.671Z,99.80
2017-09-27T03:45:01.160Z,99.80
2017-09-27T03:47:29.672Z,99.80
2017-09-27T03:49:57.160Z,99.70
2017-09-27T03:52:29.597Z,99.70
2017-09-27T03:54:57.121Z,99.70
2017-09-27T03:57:24.616Z,99.80
2017-09-27T03:59:52.123Z,99.90
2017-09-27T04:02:19.600Z,99.90
2017-09-27T04:04:47.103Z,99.90
2017-09-27T04:07:14.594Z,99.90
2017-09-27T04:09:42.116Z,99.90
2017-09-27T04:12:10.363Z,99.90
2017-09-27T04:14:37.863Z,99.90
2017-09-27T04:17:05.347Z,99.90
2017-09-27T04:19:32.861Z,99.90
2017-09-27T04:22:00.353Z,99.90
2017-09-27T04:24:28.624Z,99.90
2017-09-27T04:26:56.113Z,99.90
2017-09-27T04:29:23.616Z,99.90
2017-09-27T04:31:51.095Z,99.90
2017-09-27T04:34:18.601Z,99.90
2017-09-27T04:36:46.088Z,99.90
2017-09-27T04:39:13.596Z,99.90
2017-09-27T04:41:41.085Z,99.90
2017-09-27T04:44:08.588Z,99.90
2017-09-27T04:46:36.084Z,99.90
2017-09-27T04:49:04.359Z,99.80
2017-09-27T04:51:31.853Z,99.70
2017-09-27T04:53:59.335Z,99.90
2017-09-27T04:56:26.854Z,99.90
2017-09-27T04:58:59.296Z,99.90
2017-09-27T05:01:26.807Z,99.90
2017-09-27T05:03:54.293Z,99.90
2017-09-27T05:06:21.801Z,99.90
2017-09-27T05:08:49.291Z,99.70
2017-09-27T05:11:16.800Z,99.80
2017-09-27T05:13:44.288Z,99.50
2017-09-27T05:16:12.560Z,99.70
2017-09-27T05:18:40.816Z,99.80
2017-09-27T05:21:09.093Z,99.90
2017-09-27T05:23:36.572Z,99.90
2017-09-27T05:26:04.068Z,99.90
2017-09-27T05:28:31.551Z,99.90
2017-09-27T05:30:59.056Z,99.90
2017-09-27T05:33:26.544Z,99.90
2017-09-27T05:35:54.052Z,99.90
2017-09-27T05:38:21.539Z,99.90
2017-09-27T05:40:49.048Z,99.90
2017-09-27T05:43:16.527Z,99.90
2017-09-27T05:45:44.031Z,99.90
2017-09-27T05:48:11.522Z,99.90
2017-09-27T05:50:39.024Z,99.90
2017-09-27T05:53:06.509Z,99.90
2017-09-27T05:55:34.032Z,99.90
2017-09-27T05:58:01.507Z,99.90
2017-09-27T06:00:28.992Z,99.90
2017-09-27T06:02:56.500Z,99.90
2017-09-27T06:05:24.898Z,99.90
2017-09-27T06:07:52.494Z,99.90
2017-09-27T06:10:20.764Z,99.90
2017-09-27T06:12:48.296Z,99.90
2017-09-27T06:15:15.862Z,99.90
2017-09-27T06:17:43.514Z,99.90
2017-09-27T06:20:11.038Z,99.90
2017-09-27T06:22:48.291Z,99.90
2017-09-27T06:25:16.592Z,99.90
2017-09-27T06:27:44.115Z,99.90
2017-09-27T06:30:12.369Z,99.90
2017-09-27T06:32:40.725Z,99.90
2017-09-27T06:35:09.040Z,99.80
2017-09-27T06:37:36.607Z,99.70
2017-09-27T06:40:04.136Z,99.90
2017-09-27T06:42:31.749Z,99.90
2017-09-27T06:44:59.272Z,99.90
2017-09-27T06:47:27.559Z,99.80
2017-09-27T06:49:55.105Z,99.70
2017-09-27T06:52:22.641Z,99.50
2017-09-27T06:54:51.263Z,99.30
2017-09-27T06:57:18.790Z,99.40
2017-09-27T06:59:46.299Z,99.10
2017-09-27T07:02:13.854Z,99.00
2017-09-27T07:04:41.353Z,98.90
2017-09-27T07:07:09.660Z,98.10
2017-09-27T07:09:37.195Z,98.00
2017-09-27T07:12:04.724Z,97.70
2017-09-27T07:14:32.288Z,97.70
2017-09-27T07:16:59.813Z,97.80
2017-09-27T07:19:27.329Z,97.80
2017-09-27T07:21:54.857Z,97.80
2017-09-27T07:24:22.376Z,97.60
2017-09-27T07:26:49.878Z,97.80
2017-09-27T07:29:17.397Z,97.60
2017-09-27T07:31:45.666Z,97.30
2017-09-27T07:34:13.943Z,97.10
2017-09-27T07:36:41.455Z,97.10
2017-09-27T07:39:09.776Z,96.70
2017-09-27T07:41:37.277Z,96.60
2017-09-27T07:44:05.557Z,96.10
2017-09-27T07:46:34.996Z,96.10
2017-09-27T07:49:02.514Z,96.10
2017-09-27T07:51:30.004Z,96.10
2017-09-27T07:53:58.280Z,95.50
2017-09-27T07:56:25.767Z,95.50
2017-09-27T07:58:53.280Z,95.50
2017-09-27T08:01:20.776Z,94.90
2017-09-27T08:03:48.289Z,95.00
2017-09-27T08:06:15.797Z,94.80
2017-09-27T08:08:43.304Z,94.00
2017-09-27T08:11:10.813Z,94.40
2017-09-27T08:13:38.316Z,93.90
2017-09-27T08:16:06.808Z,93.30
2017-09-27T08:18:34.301Z,93.30
2017-09-27T08:21:01.812Z,93.70
2017-09-27T08:23:29.323Z,93.90
2017-09-27T08:25:57.477Z,93.60
2017-09-27T08:28:24.984Z,93.60
2017-09-27T08:30:52.511Z,93.70
2017-09-27T08:33:20.821Z,93.50
2017-09-27T08:35:48.344Z,93.10
2017-09-27T08:38:16.610Z,93.10
2017-09-27T08:40:44.921Z,92.70
2017-09-27T08:43:12.408Z,92.60
2017-09-27T08:45:40.681Z,92.40
2017-09-27T08:48:08.947Z,92.50
2017-09-27T08:50:36.465Z,92.40
2017-09-27T08:53:03.969Z,92.10
2017-09-27T08:55:31.473Z,92.50
2017-09-27T08:57:58.968Z,92.20
2017-09-27T09:00:26.469Z,91.80
2017-09-27T09:02:53.952Z,92.20
2017-09-27T09:05:21.464Z,92.00
2017-09-27T09:07:48.952Z,91.90
2017-09-27T09:10:16.495Z,91.80
2017-09-27T09:12:43.997Z,92.20
2017-09-27T09:15:11.508Z,92.00
2017-09-27T09:17:39.806Z,91.40
2017-09-27T09:20:07.305Z,91.30
2017-09-27T09:22:35.584Z,90.90
2017-09-27T09:25:03.085Z,90.90
2017-09-27T09:27:30.598Z,91.20
2017-09-27T09:29:58.088Z,90.90
2017-09-27T09:32:26.363Z,90.80
2017-09-27T09:34:58.485Z,90.60
2017-09-27T09:37:26.072Z,90.60
2017-09-27T09:39:53.572Z,90.50
2017-09-27T09:42:21.189Z,90.30
2017-09-27T09:44:53.988Z,90.40
2017-09-27T09:47:21.495Z,90.30
2017-09-27T09:49:48.991Z,90.20
2017-09-27T09:52:17.273Z,90.20
2017-09-27T09:54:44.756Z,90.10
2017-09-27T09:57:12.261Z,90.40
2017-09-27T09:59:39.744Z,89.90
2017-09-27T10:02:07.232Z,89.50
2017-09-27T10:04:34.736Z,89.60
2017-09-27T10:07:02.229Z,89.80
2017-09-27T10:09:29.795Z,89.50
2017-09-27T10:11:58.053Z,89.50
2017-09-27T10:14:25.581Z,89.40
2017-09-27T10:16:53.085Z,88.40
2017-09-27T10:19:20.595Z,88.10
2017-09-27T10:21:48.473Z,88.60
2017-09-27T10:24:16.760Z,88.70
2017-09-27T10:26:44.253Z,88.50
2017-09-27T10:29:11.774Z,88.40
2017-09-27T10:31:39.264Z,88.30
2017-09-27T10:34:07.559Z,88.30
2017-09-27T10:36:35.062Z,88.30
2017-09-27T10:39:02.572Z,88.50
2017-09-27T10:41:30.056Z,87.20
2017-09-27T10:43:57.579Z,87.50
2017-09-27T10:46:25.068Z,86.00
2017-09-27T10:48:52.583Z,85.60
2017-09-27T10:51:20.836Z,85.20
2017-09-27T10:53:48.347Z,85.20
2017-09-27T10:56:15.841Z,85.40
2017-09-27T10:58:44.120Z,85.30
2017-09-27T11:01:11.611Z,85.20
2017-09-27T11:03:39.129Z,85.90
2017-09-27T11:06:06.622Z,86.70
2017-09-27T11:08:34.899Z,87.00
2017-09-27T11:11:02.409Z,87.00
2017-09-27T11:13:29.904Z,87.50
2017-09-27T11:15:57.416Z,87.50
2017-09-27T11:18:25.669Z,88.00
2017-09-27T11:20:53.949Z,88.20
2017-09-27T11:23:21.439Z,88.20
2017-09-27T11:25:48.944Z,88.60
2017-09-27T11:28:16.432Z,88.00
2017-09-27T11:30:43.945Z,88.90
2017-09-27T11:33:11.433Z,90.10
2017-09-27T11:35:38.932Z,90.00
2017-09-27T11:38:06.425Z,89.60
2017-09-27T11:40:34.701Z,90.00
2017-09-27T11:43:02.187Z,89.90
2017-09-27T11:45:29.696Z,90.30
2017-09-27T11:47:57.179Z,90.30
2017-09-27T11:50:24.703Z,90.40
2017-09-27T11:52:52.205Z,90.40
2017-09-27T11:55:20.486Z,90.00
2017-09-27T11:57:48.900Z,90.00
2017-09-27T12:00:16.561Z,90.20
2017-09-27T12:02:44.152Z,90.30
2017-09-27T12:05:12.762Z,90.10
2017-09-27T12:07:41.872Z,90.10
2017-09-27T12:10:09.515Z,90.10
2017-09-27T12:12:37.056Z,90.20
2017-09-27T12:15:05.316Z,90.10
2017-09-27T12:17:33.680Z,90.20
2017-09-27T12:20:01.949Z,90.10
2017-09-27T12:22:29.814Z,90.00
2017-09-27T12:24:57.319Z,89.90
2017-09-27T12:27:24.844Z,89.90
2017-09-27T12:29:52.353Z,90.20
2017-09-27T12:32:19.913Z,90.20
2017-09-27T12:34:47.422Z,90.30
2017-09-27T12:37:14.935Z,90.10
2017-09-27T12:39:42.441Z,89.70
2017-09-27T12:42:09.945Z,90.20
2017-09-27T12:44:37.446Z,90.10
2017-09-27T12:47:04.969Z,90.20
2017-09-27T12:49:32.464Z,89.60
2017-09-27T12:51:59.978Z,89.60
2017-09-27T12:54:27.486Z,89.80
2017-09-27T12:56:55.004Z,89.60
2017-09-27T12:59:22.492Z,89.10
2017-09-27T13:01:49.976Z,90.10
2017-09-27T13:04:18.257Z,90.10
2017-09-27T13:06:45.784Z,90.00
2017-09-27T13:09:17.724Z,90.10
2017-09-27T13:11:45.984Z,90.00
2017-09-27T13:14:14.280Z,89.10
2017-09-27T13:16:41.781Z,89.10
2017-09-27T13:19:09.386Z,88.60
2017-09-27T13:21:36.909Z,88.70
2017-09-27T13:24:04.453Z,88.40
2017-09-27T13:26:31.966Z,88.70
2017-09-27T13:29:00.251Z,88.10
2017-09-27T13:31:27.746Z,88.00
2017-09-27T13:33:55.254Z,88.00
2017-09-27T13:36:22.756Z,87.60
2017-09-27T13:38:51.048Z,86.90
2017-09-27T13:41:18.560Z,86.80
2017-09-27T13:43:46.081Z,86.70
2017-09-27T13:46:13.585Z,88.20
2017-09-27T13:48:41.092Z,88.90
2017-09-27T13:51:08.590Z,89.00
2017-09-27T13:53:36.104Z,88.80
2017-09-27T13:56:03.608Z,89.20
2017-09-27T13:58:32.020Z,88.70
2017-09-27T14:00:59.779Z,88.60
2017-09-27T14:03:27.452Z,88.50
2017-09-27T14:05:54.997Z,89.10
2017-09-27T14:08:23.342Z,89.70
2017-09-27T14:10:51.092Z,89.60
2017-09-27T14:13:18.804Z,89.40
2017-09-27T14:15:46.589Z,89.70
2017-09-27T14:18:15.020Z,90.10
2017-09-27T14:20:42.588Z,90.00
2017-09-27T14:23:11.386Z,89.40
2017-09-27T14:25:41.221Z,89.90
2017-09-27T14:28:09.664Z,89.30
2017-09-27T14:30:37.238Z,88.80
2017-09-27T14:33:05.573Z,90.00
2017-09-27T14:35:33.122Z,89.20
2017-09-27T14:38:00.689Z,88.70
2017-09-27T14:40:28.252Z,88.50
2017-09-27T14:42:55.773Z,88.70
2017-09-27T14:45:23.304Z,89.00
2017-09-27T14:47:50.817Z,88.80
2017-09-27T14:50:18.345Z,89.00
2017-09-27T14:52:48.994Z,89.20
2017-09-27T14:55:17.278Z,89.00
2017-09-27T14:57:44.790Z,89.00
2017-09-27T15:00:13.077Z,89.60
2017-09-27T15:02:40.585Z,89.50
2017-09-27T15:05:08.876Z,88.80
2017-09-27T15:07:36.385Z,88.70
2017-09-27T15:10:03.940Z,89.40
2017-09-27T15:12:32.234Z,89.30
2017-09-27T15:14:59.742Z,89.20
2017-09-27T15:17:28.028Z,89.80
2017-09-27T15:19:55.552Z,89.80
2017-09-27T15:22:23.830Z,89.60
2017-09-27T15:24:51.335Z,89.50
2017-09-27T15:27:18.855Z,90.00
2017-09-27T15:30:04.573Z,89.30
2017-09-27T15:32:32.101Z,89.50
2017-09-27T15:35:00.367Z,89.10
2017-09-27T15:37:28.650Z,89.80
2017-09-27T15:39:56.151Z,89.70
2017-09-27T15:42:23.677Z,89.80
2017-09-27T15:44:51.159Z,90.00
2017-09-27T15:47:19.453Z,90.00
2017-09-27T15:49:46.956Z,90.00
2017-09-27T15:52:15.251Z,89.80
2017-09-27T15:54:42.760Z,89.70
2017-09-27T15:57:10.280Z,90.10
2017-09-27T15:59:37.776Z,89.80
2017-09-27T16:02:05.309Z,89.80
2017-09-27T16:04:32.810Z,90.00
2017-09-27T16:07:00.361Z,90.20
2017-09-27T16:09:27.861Z,90.40
2017-09-27T16:11:55.402Z,90.10
2017-09-27T16:14:22.920Z,90.30
2017-09-27T16:16:50.462Z,90.60
2017-09-27T16:19:17.984Z,90.50
2017-09-27T16:21:46.247Z,90.50
2017-09-27T16:24:19.225Z,90.40
2017-09-27T16:26:47.493Z,90.50
2017-09-27T16:29:15.021Z,90.40
2017-09-27T16:31:43.621Z,90.50
2017-09-27T16:34:11.215Z,90.60
2017-09-27T16:36:38.744Z,90.60
2017-09-27T16:39:06.257Z,90.70
2017-09-27T16:41:34.603Z,90.70
2017-09-27T16:44:02.113Z,90.90
2017-09-27T16:46:29.606Z,90.80
2017-09-27T16:48:57.144Z,90.90
2017-09-27T16:51:24.739Z,90.90
2017-09-27T16:53:53.036Z,93.30
2017-09-27T16:56:20.546Z,93.10
2017-09-27T16:58:48.057Z,93.60
2017-09-27T17:01:15.564Z,94.00
2017-09-27T17:03:43.089Z,94.30
2017-09-27T17:06:11.362Z,94.90
2017-09-27T17:08:38.880Z,94.90
2017-09-27T17:11:06.387Z,95.00
2017-09-27T17:13:33.897Z,94.90
2017-09-27T17:16:01.403Z,95.10
2017-09-27T17:18:28.916Z,95.30
2017-09-27T17:20:57.005Z,95.40
2017-09-27T17:23:24.520Z,95.50
2017-09-27T17:25:52.044Z,95.40
2017-09-27T17:28:19.616Z,95.50
2017-09-27T17:30:47.137Z,95.50
2017-09-27T17:33:14.629Z,95.30
2017-09-27T17:35:42.155Z,95.30
2017-09-27T17:38:09.699Z,95.30
2017-09-27T17:40:37.250Z,95.60
2017-09-27T17:43:04.756Z,95.60
2017-09-27T17:45:32.302Z,95.50
2017-09-27T17:47:59.795Z,95.40
2017-09-27T17:50:28.073Z,95.30
2017-09-27T17:52:56.012Z,95.20
2017-09-27T17:55:24.309Z,95.30
2017-09-27T17:57:51.817Z,95.30
2017-09-27T18:00:20.172Z,95.10
2017-09-27T18:02:47.684Z,95.10
2017-09-27T18:05:20.805Z,95.20
2017-09-27T18:08:08.230Z,95.20
2017-09-27T18:10:51.609Z,95.20
2017-09-27T18:16:42.869Z,95.10
2017-09-27T18:19:10.392Z,95.10
2017-09-27T18:21:37.909Z,95.10
2017-09-27T18:24:06.218Z,95.20
2017-09-27T18:26:33.773Z,95.20
2017-09-27T18:29:05.869Z,95.10
2017-09-27T18:31:33.404Z,95.10
2017-09-27T18:34:00.947Z,95.30
2017-09-27T18:36:28.518Z,95.40
2017-09-27T18:38:56.041Z,95.60
2017-09-27T18:41:23.602Z,95.70
2017-09-27T18:43:51.101Z,95.90
2017-09-27T18:46:18.693Z,96.10
2017-09-27T18:48:46.974Z,96.40
2017-09-27T18:51:14.492Z,96.40
2017-09-27T18:53:41.973Z,96.60
2017-09-27T18:56:09.619Z,96.70
2017-09-27T18:58:37.148Z,96.90
2017-09-27T19:01:04.662Z,96.90
2017-09-27T19:03:32.186Z,97.00
2017-09-27T19:06:00.456Z,96.80
2017-09-27T19:08:27.981Z,96.80
2017-09-27T19:10:56.265Z,96.60
2017-09-27T19:13:23.788Z,96.60
2017-09-27T19:15:52.070Z,96.60
2017-09-27T19:18:19.600Z,96.60
2017-09-27T19:20:47.857Z,96.70
2017-09-27T19:23:16.142Z,96.70
2017-09-27T19:25:45.571Z,96.70
2017-09-27T19:28:13.076Z,96.80
2017-09-27T19:30:40.592Z,96.90
2017-09-27T19:33:08.234Z,96.80
2017-09-27T19:35:35.771Z,97.00
2017-09-27T19:38:04.245Z,97.00
2017-09-27T19:40:32.514Z,97.10
2017-09-27T19:43:00.053Z,97.10
2017-09-27T19:45:27.592Z,97.00
2017-09-27T19:47:55.876Z,96.90
2017-09-27T19:50:23.395Z,96.80
2017-09-27T19:52:51.677Z,97.20
2017-09-27T19:55:19.219Z,97.10
2017-09-27T19:57:46.889Z,97.20
2017-09-27T20:00:14.392Z,97.10
2017-09-27T20:02:42.661Z,97.10
2017-09-27T20:05:10.201Z,97.10
2017-09-27T20:07:37.704Z,97.10
2017-09-27T20:10:05.234Z,97.10
2017-09-27T20:12:32.749Z,97.20
2017-09-27T20:15:08.208Z,97.10
2017-09-27T20:17:35.709Z,97.30
2017-09-27T20:20:03.252Z,97.50
2017-09-27T20:22:30.780Z,97.70
2017-09-27T20:25:00.977Z,97.80
2017-09-27T20:27:29.228Z,97.90
2017-09-27T20:29:56.758Z,97.90
2017-09-27T20:32:24.252Z,97.80
2017-09-27T20:34:51.856Z,97.80
2017-09-27T20:37:19.355Z,97.90
2017-09-27T20:39:46.863Z,98.00
2017-09-27T20:42:14.352Z,98.10
2017-09-27T20:44:41.858Z,98.00
2017-09-27T20:47:09.496Z,97.80
2017-09-27T20:49:37.013Z,97.90
2017-09-27T20:52:04.506Z,97.90
2017-09-27T20:54:32.063Z,98.00
2017-09-27T20:56:59.549Z,97.90
2017-09-27T20:59:27.805Z,98.00
2017-09-27T21:01:55.315Z,97.90
2017-09-27T21:04:22.816Z,98.00
2017-09-27T21:06:50.328Z,98.00
2017-09-27T21:09:17.816Z,97.90
2017-09-27T21:11:45.328Z,98.00
2017-09-27T21:14:13.575Z,98.20
2017-09-27T21:16:41.080Z,98.10
2017-09-27T21:19:08.564Z,98.10
2017-09-27T21:21:36.068Z,98.30
2017-09-27T21:24:03.548Z,98.60
2017-09-27T21:26:31.057Z,98.50
2017-09-27T21:28:58.549Z,98.20
2017-09-27T21:31:26.827Z,98.60
2017-09-27T21:33:54.321Z,98.50
2017-09-27T21:36:21.827Z,98.60
2017-09-27T21:38:50.079Z,98.70
2017-09-27T21:41:17.584Z,98.70
2017-09-27T21:43:45.838Z,98.80
2017-09-27T21:46:14.115Z,98.70
2017-09-27T21:48:42.372Z,98.80
2017-09-27T21:51:10.648Z,98.80
2017-09-27T21:53:38.141Z,98.70
2017-09-27T21:56:05.633Z,98.80
2017-09-27T21:58:33.149Z,98.80
2017-09-27T22:01:00.636Z,98.80
2017-09-27T22:03:28.144Z,98.80
2017-09-27T22:05:56.398Z,98.70
2017-09-27T22:08:24.668Z,98.50
2017-09-27T22:10:52.919Z,98.60
2017-09-27T22:13:21.188Z,98.70
2017-09-27T22:15:49.440Z,98.70
2017-09-27T22:18:17.711Z,98.60
2017-09-27T22:20:45.964Z,98.60
2017-09-27T22:23:14.240Z,98.80
2017-09-27T22:25:41.724Z,98.70
2017-09-27T22:28:09.231Z,98.70
2017-09-27T22:30:36.719Z,98.60
2017-09-27T22:33:04.225Z,98.60
2017-09-27T22:35:31.809Z,98.60
2017-09-27T22:37:59.433Z,98.70
2017-09-27T22:40:26.923Z,98.80
2017-09-27T22:42:55.196Z,98.60
2017-09-27T22:45:23.448Z,98.60
2017-09-27T22:47:51.724Z,98.60
2017-09-27T22:50:19.300Z,98.60
2017-09-27T22:52:46.821Z,98.50
2017-09-27T22:55:14.307Z,98.60
2017-09-27T22:57:41.808Z,98.60
2017-09-27T23:00:09.301Z,98.60
2017-09-27T23:02:36.816Z,98.60
2017-09-27T23:05:04.305Z,98.10
2017-09-27T23:07:32.564Z,98.40
2017-09-27T23:10:00.840Z,98.50
2017-09-27T23:12:28.332Z,98.40
2017-09-27T23:14:55.836Z,98.50
2017-09-27T23:17:23.330Z,98.50
2017-09-27T23:19:50.845Z,98.50
2017-09-27T23:25:20.205Z,98.50
2017-09-27T23:27:47.777Z,98.40
2017-09-27T23:30:15.288Z,98.40
2017-09-27T23:32:42.775Z,98.40
2017-09-27T23:35:10.283Z,98.40
2017-09-27T23:37:37.769Z,98.40
2017-09-27T23:40:05.278Z,98.50
2017-09-27T23:42:32.840Z,98.40
2017-09-27T23:45:00.346Z,98.50
2017-09-27T23:47:27.831Z,98.60
2017-09-27T23:49:56.201Z,98.50
2017-09-27T23:54:58.052Z,98.70
2017-09-27T23:57:25.564Z,98.60
2017-09-27T23:59:53.836Z,98.80
